createdAt,value
2023-03-16T00:00:19.302Z,99115.25
2023-03-16T00:02:47.621Z,99112.50
2023-03-16T00:05:15.977Z,99115.97
2023-03-16T00:07:44.336Z,99108.97
2023-03-16T00:10:14.110Z,99101.09
2023-03-16T00:12:43.888Z,99108.03
2023-03-16T00:15:13.111Z,99094.81
2023-03-16T00:17:42.724Z,99091.31
2023-03-16T00:20:12.230Z,99079.03
2023-03-16T00:22:41.910Z,99071.19
2023-03-16T00:25:10.825Z,99065.91
2023-03-16T00:27:39.297Z,99071.06
2023-03-16T00:30:08.327Z,99055.28
2023-03-16T00:32:38.243Z,99049.00
2023-03-16T00:35:09.482Z,99043.66
2023-03-16T00:37:39.833Z,99036.75
2023-03-16T00:40:12.283Z,99032.97
2023-03-16T00:42:40.598Z,99023.16
2023-03-16T00:45:09.876Z,99023.91
2023-03-16T00:47:38.044Z,99020.28
2023-03-16T00:50:08.315Z,99020.19
2023-03-16T00:52:38.035Z,99014.81
2023-03-16T00:55:06.686Z,99019.94
2023-03-16T00:57:34.795Z,99009.41
2023-03-16T01:00:12.694Z,99020.72
2023-03-16T01:02:40.849Z,99011.84
2023-03-16T01:05:11.094Z,99004.00
2023-03-16T01:07:39.398Z,99001.25
2023-03-16T01:10:08.889Z,99003.00
2023-03-16T01:12:37.087Z,99002.03
2023-03-16T01:15:07.074Z,98990.63
2023-03-16T01:17:35.675Z,98991.31
2023-03-16T01:20:08.145Z,98984.13
2023-03-16T01:22:37.710Z,98985.72
2023-03-16T01:25:06.617Z,98989.81
2023-03-16T01:27:34.777Z,98976.44
2023-03-16T01:30:02.997Z,98968.50
2023-03-16T01:32:31.486Z,98968.34
2023-03-16T01:34:59.925Z,98969.94
2023-03-16T01:37:28.066Z,98970.63
2023-03-16T01:40:02.200Z,98966.97
2023-03-16T01:42:30.468Z,98964.09
2023-03-16T01:45:05.582Z,98965.72
2023-03-16T01:47:38.546Z,98963.06
2023-03-16T01:50:10.827Z,98961.22
2023-03-16T01:52:42.337Z,98950.75
2023-03-16T01:55:15.031Z,98947.97
2023-03-16T01:57:46.267Z,98942.50
2023-03-16T02:00:19.450Z,98933.59
2023-03-16T02:03:08.229Z,98932.25
2023-03-16T02:05:50.199Z,98927.84
2023-03-16T02:08:19.748Z,98927.81
2023-03-16T02:10:49.742Z,98928.66
2023-03-16T02:13:18.034Z,98916.25
2023-03-16T02:15:46.456Z,98920.63
2023-03-16T02:18:16.095Z,98912.69
2023-03-16T02:20:52.048Z,98912.41
2023-03-16T02:23:22.320Z,98917.66
2023-03-16T02:26:02.640Z,98903.72
2023-03-16T02:28:39.148Z,98886.22
2023-03-16T02:31:08.829Z,98891.31
2023-03-16T02:33:37.259Z,98899.19
2023-03-16T02:36:06.317Z,98906.91
2023-03-16T02:38:34.431Z,98901.66
2023-03-16T02:41:13.012Z,98896.41
2023-03-16T02:43:44.959Z,98893.66
2023-03-16T02:46:29.334Z,98891.88
2023-03-16T02:49:04.324Z,98892.75
2023-03-16T02:51:33.236Z,98886.72
2023-03-16T02:54:01.391Z,98890.25
2023-03-16T02:56:33.157Z,98885.00
2023-03-16T02:59:01.546Z,98894.63
2023-03-16T03:01:34.904Z,98888.47
2023-03-16T03:04:03.596Z,98875.53
2023-03-16T03:06:33.739Z,98872.81
2023-03-16T03:09:03.189Z,98873.75
2023-03-16T03:11:32.195Z,98872.06
2023-03-16T03:14:00.974Z,98866.72
2023-03-16T03:16:29.567Z,98861.41
2023-03-16T03:19:00.511Z,98864.94
2023-03-16T03:21:31.852Z,98876.38
2023-03-16T03:24:02.624Z,98870.19
2023-03-16T03:26:30.809Z,98864.03
2023-03-16T03:29:01.411Z,98870.28
2023-03-16T03:31:29.716Z,98866.72
2023-03-16T03:34:06.443Z,98862.50
2023-03-16T03:36:36.937Z,98866.03
2023-03-16T03:39:07.268Z,98872.06
2023-03-16T03:41:36.505Z,98853.69
2023-03-16T03:44:06.358Z,98864.19
2023-03-16T03:46:36.406Z,98846.69
2023-03-16T03:49:05.930Z,98864.19
2023-03-16T03:51:36.404Z,98852.78
2023-03-16T03:54:11.007Z,98856.16
2023-03-16T03:56:39.279Z,98854.38
2023-03-16T03:59:12.337Z,98852.66
2023-03-16T04:01:59.146Z,98849.03
2023-03-16T04:04:38.207Z,98848.94
2023-03-16T04:07:07.319Z,98845.38
2023-03-16T04:09:35.577Z,98839.38
2023-03-16T04:12:06.149Z,98840.31
2023-03-16T04:14:35.284Z,98842.00
2023-03-16T04:17:07.509Z,98837.59
2023-03-16T04:19:39.758Z,98828.13
2023-03-16T04:22:13.129Z,98829.91
2023-03-16T04:24:43.245Z,98828.91
2023-03-16T04:27:13.164Z,98826.44
2023-03-16T04:29:41.650Z,98817.66
2023-03-16T04:32:11.456Z,98809.81
2023-03-16T04:34:43.864Z,98810.00
2023-03-16T04:37:14.037Z,98799.66
2023-03-16T04:39:44.136Z,98806.81
2023-03-16T04:42:12.514Z,98805.13
2023-03-16T04:44:44.454Z,98806.25
2023-03-16T04:47:16.001Z,98807.09
2023-03-16T04:49:46.928Z,98793.88
2023-03-16T04:52:15.798Z,98797.38
2023-03-16T04:54:44.090Z,98799.16
2023-03-16T04:57:14.546Z,98820.06
2023-03-16T04:59:47.215Z,98818.22
2023-03-16T05:02:33.843Z,98819.91
2023-03-16T05:05:04.708Z,98807.75
2023-03-16T05:07:33.410Z,98818.13
2023-03-16T05:10:01.633Z,98807.44
2023-03-16T05:12:30.759Z,98816.06
2023-03-16T05:15:05.310Z,98816.06
2023-03-16T05:17:43.075Z,98811.69
2023-03-16T05:20:16.560Z,98798.50
2023-03-16T05:22:51.636Z,98794.09
2023-03-16T05:25:25.799Z,98801.91
2023-03-16T05:27:57.086Z,98796.66
2023-03-16T05:30:32.266Z,98793.13
2023-03-16T05:33:04.698Z,98788.66
2023-03-16T05:35:35.101Z,98775.69
2023-03-16T05:38:07.749Z,98779.16
2023-03-16T05:40:38.579Z,98777.41
2023-03-16T05:43:16.231Z,98774.78
2023-03-16T05:45:50.441Z,98770.28
2023-03-16T05:48:21.215Z,98780.78
2023-03-16T05:50:56.260Z,98786.03
2023-03-16T05:53:29.477Z,98789.41
2023-03-16T05:56:05.927Z,98787.88
2023-03-16T05:58:36.630Z,98794.81
2023-03-16T06:01:09.568Z,98791.34
2023-03-16T06:03:37.871Z,98792.13
2023-03-16T06:06:09.220Z,98785.09
2023-03-16T06:08:49.861Z,98792.19
2023-03-16T06:11:20.546Z,98792.13
2023-03-16T06:13:48.829Z,98785.94
2023-03-16T06:16:17.629Z,98789.56
2023-03-16T06:18:46.499Z,98790.41
2023-03-16T06:21:16.033Z,98770.28
2023-03-16T06:23:44.782Z,98765.75
2023-03-16T06:26:13.374Z,98758.81
2023-03-16T06:28:43.937Z,98756.25
2023-03-16T06:31:12.548Z,98751.00
2023-03-16T06:33:44.850Z,98740.53
2023-03-16T06:36:13.555Z,98729.19
2023-03-16T06:38:49.151Z,98728.34
2023-03-16T06:41:34.734Z,98739.06
2023-03-16T06:44:03.838Z,98733.88
2023-03-16T06:46:33.113Z,98730.69
2023-03-16T06:49:04.424Z,98737.91
2023-03-16T06:51:33.056Z,98735.28
2023-03-16T06:54:02.824Z,98732.66
2023-03-16T06:56:31.975Z,98745.69
2023-03-16T06:59:00.339Z,98758.56
2023-03-16T07:01:28.705Z,98744.53
2023-03-16T07:03:57.226Z,98750.47
2023-03-16T07:06:30.135Z,98771.44
2023-03-16T07:08:58.358Z,98758.28
2023-03-16T07:11:27.979Z,98758.28
2023-03-16T07:13:56.088Z,98761.50
2023-03-16T07:16:24.682Z,98770.94
2023-03-16T07:18:54.196Z,98768.31
2023-03-16T07:21:22.745Z,98777.09
2023-03-16T07:23:51.653Z,98777.94
2023-03-16T07:26:25.403Z,98763.06
2023-03-16T07:28:58.627Z,98761.28
2023-03-16T07:31:27.173Z,98761.19
2023-03-16T07:33:57.506Z,98760.22
2023-03-16T07:36:35.366Z,98768.00
2023-03-16T07:39:06.277Z,98780.19
2023-03-16T07:41:35.972Z,98779.34
2023-03-16T07:44:21.711Z,98779.34
2023-03-16T07:46:51.585Z,98778.31
2023-03-16T07:49:21.765Z,98780.03
2023-03-16T07:51:51.517Z,98785.81
2023-03-16T07:54:24.344Z,98780.44
2023-03-16T07:56:52.915Z,98777.59
2023-03-16T07:59:32.432Z,98793.16
2023-03-16T08:02:01.570Z,98789.47
2023-03-16T08:04:30.032Z,98792.84
2023-03-16T08:07:00.423Z,98787.44
2023-03-16T08:09:36.224Z,98785.53
2023-03-16T08:12:08.726Z,98780.06
2023-03-16T08:14:38.886Z,98778.03
2023-03-16T08:17:13.706Z,98771.78
2023-03-16T08:19:42.771Z,98788.38
2023-03-16T08:22:12.459Z,98777.13
2023-03-16T08:24:44.364Z,98778.03
2023-03-16T08:27:16.116Z,98792.16
2023-03-16T08:29:53.230Z,98782.69
2023-03-16T08:32:23.997Z,98773.09
2023-03-16T08:34:53.827Z,98771.41
2023-03-16T08:37:22.192Z,98778.34
2023-03-16T08:39:53.242Z,98782.50
2023-03-16T08:42:22.325Z,98773.72
2023-03-16T08:44:57.496Z,98763.91
2023-03-16T08:47:29.817Z,98769.09
2023-03-16T08:50:00.315Z,98768.25
2023-03-16T08:52:28.497Z,98761.84
2023-03-16T08:55:03.519Z,98769.44
2023-03-16T08:57:32.834Z,98767.53
2023-03-16T09:00:08.937Z,98761.19
2023-03-16T09:02:38.803Z,98768.16
2023-03-16T09:05:08.431Z,98770.69
2023-03-16T09:07:37.186Z,98770.38
2023-03-16T09:10:06.759Z,98765.72
2023-03-16T09:12:38.010Z,98768.88
2023-03-16T09:15:10.212Z,98763.13
2023-03-16T09:17:38.306Z,98774.34
2023-03-16T09:20:21.871Z,98764.50
2023-03-16T09:22:54.583Z,98764.50
2023-03-16T09:25:22.676Z,98765.19
2023-03-16T09:27:50.832Z,98764.00
2023-03-16T09:30:20.846Z,98758.75
2023-03-16T09:32:49.388Z,98750.94
2023-03-16T09:35:17.836Z,98748.22
2023-03-16T09:38:04.845Z,98753.47
2023-03-16T09:40:34.067Z,98755.03
2023-03-16T09:43:18.057Z,98760.19
2023-03-16T09:45:50.463Z,98740.97
2023-03-16T09:48:22.173Z,98757.50
2023-03-16T09:50:52.785Z,98752.06
2023-03-16T09:53:25.974Z,98752.59
2023-03-16T09:55:57.961Z,98760.13
2023-03-16T09:58:27.197Z,98755.38
2023-03-16T10:01:09.984Z,98768.69
2023-03-16T10:04:00.814Z,98769.88
2023-03-16T10:06:29.674Z,98769.94
2023-03-16T10:09:08.082Z,98759.81
2023-03-16T10:11:41.548Z,98754.88
2023-03-16T10:14:21.463Z,98745.22
2023-03-16T10:16:58.420Z,98744.88
2023-03-16T10:19:37.653Z,98763.69
2023-03-16T10:22:19.889Z,98742.09
2023-03-16T10:24:59.126Z,98740.25
2023-03-16T10:27:31.608Z,98738.13
2023-03-16T10:30:01.506Z,98745.84
2023-03-16T10:32:35.665Z,98742.97
2023-03-16T10:35:16.380Z,98739.00
2023-03-16T10:37:46.604Z,98756.03
2023-03-16T10:40:14.971Z,98762.75
2023-03-16T10:42:43.931Z,98745.78
2023-03-16T10:45:25.408Z,98763.84
2023-03-16T10:47:56.046Z,98755.88
2023-03-16T10:50:27.966Z,98752.06
2023-03-16T10:52:58.237Z,98739.41
2023-03-16T10:55:30.773Z,98741.44
2023-03-16T10:57:59.462Z,98733.53
2023-03-16T11:00:31.064Z,98729.03
2023-03-16T11:03:02.620Z,98732.22
2023-03-16T11:05:33.469Z,98717.50
2023-03-16T11:08:09.642Z,98723.28
2023-03-16T11:10:52.942Z,98724.00
2023-03-16T11:13:27.309Z,98726.97
2023-03-16T11:16:01.741Z,98726.72
2023-03-16T11:18:34.978Z,98725.16
2023-03-16T11:21:10.526Z,98717.84
2023-03-16T11:23:42.255Z,98713.88
2023-03-16T11:26:21.311Z,98718.88
2023-03-16T11:28:54.964Z,98734.06
2023-03-16T11:31:27.723Z,98727.47
2023-03-16T11:33:57.634Z,98733.69
2023-03-16T11:36:39.313Z,98718.31
2023-03-16T11:39:15.920Z,98714.28
2023-03-16T11:41:56.539Z,98707.50
2023-03-16T11:44:34.254Z,98715.34
2023-03-16T11:47:17.362Z,98716.34
2023-03-16T11:49:56.921Z,98707.72
2023-03-16T11:52:36.021Z,98706.13
2023-03-16T11:55:20.031Z,98702.53
2023-03-16T11:57:53.540Z,98706.19
2023-03-16T12:00:32.470Z,98694.53
2023-03-16T12:03:25.393Z,98698.31
2023-03-16T12:06:05.678Z,98698.31
2023-03-16T12:08:57.651Z,98696.22
2023-03-16T12:11:31.554Z,98684.75
2023-03-16T12:14:12.633Z,98692.63
2023-03-16T12:16:49.791Z,98680.19
2023-03-16T12:19:24.978Z,98682.75
2023-03-16T12:22:04.283Z,98677.53
2023-03-16T12:24:39.011Z,98681.81
2023-03-16T12:27:13.188Z,98667.66
2023-03-16T12:29:45.926Z,98663.00
2023-03-16T12:32:19.963Z,98666.38
2023-03-16T12:34:54.796Z,98660.09
2023-03-16T12:37:35.996Z,98662.81
2023-03-16T12:40:15.777Z,98668.53
2023-03-16T12:42:57.482Z,98646.78
2023-03-16T12:45:35.252Z,98644.13
2023-03-16T12:48:14.660Z,98653.97
2023-03-16T12:51:03.038Z,98647.41
2023-03-16T12:53:44.504Z,98651.84
2023-03-16T12:56:16.476Z,98643.22
2023-03-16T12:58:47.471Z,98646.38
2023-03-16T13:01:18.588Z,98635.41
2023-03-16T13:03:49.813Z,98635.06
2023-03-16T13:06:21.730Z,98638.88
2023-03-16T13:08:56.769Z,98652.25
2023-03-16T13:11:25.419Z,98629.25
2023-03-16T13:14:10.982Z,98649.53
2023-03-16T13:16:40.453Z,98648.66
2023-03-16T13:19:28.065Z,98642.47
2023-03-16T13:22:04.819Z,98640.91
2023-03-16T13:24:41.216Z,98635.16
2023-03-16T13:27:22.385Z,98637.22
2023-03-16T13:29:58.793Z,98640.06
2023-03-16T13:32:31.427Z,98634.81
2023-03-16T13:35:02.220Z,98621.94
2023-03-16T13:37:31.768Z,98621.59
2023-03-16T13:40:04.699Z,98616.59
2023-03-16T13:42:33.843Z,98620.84
2023-03-16T13:45:14.346Z,98621.38
2023-03-16T13:47:44.719Z,98624.78
2023-03-16T13:50:16.041Z,98622.41
2023-03-16T13:52:45.559Z,98620.44
2023-03-16T13:55:20.072Z,98609.16
2023-03-16T13:57:50.135Z,98610.00
2023-03-16T14:00:23.295Z,98601.63
2023-03-16T14:02:55.086Z,98592.31
2023-03-16T14:05:27.494Z,98583.19
2023-03-16T14:07:57.394Z,98581.63
2023-03-16T14:10:33.231Z,98586.41
2023-03-16T14:13:12.728Z,98587.16
2023-03-16T14:15:41.254Z,98599.41
2023-03-16T14:18:16.466Z,98589.63
2023-03-16T14:20:44.920Z,98580.03
2023-03-16T14:23:20.232Z,98582.09
2023-03-16T14:25:51.166Z,98591.78
2023-03-16T14:28:22.460Z,98595.25
2023-03-16T14:30:53.938Z,98599.84
2023-03-16T14:33:29.882Z,98583.16
2023-03-16T14:36:00.763Z,98599.78
2023-03-16T14:38:32.746Z,98587.06
2023-03-16T14:41:07.926Z,98601.97
2023-03-16T14:43:40.303Z,98611.13
2023-03-16T14:46:09.499Z,98604.56
2023-03-16T14:48:38.773Z,98586.25
2023-03-16T14:51:07.137Z,98574.97
2023-03-16T14:53:35.422Z,98563.50
2023-03-16T14:56:06.228Z,98560.69
2023-03-16T14:58:37.429Z,98572.81
2023-03-16T15:01:06.411Z,98572.63
2023-03-16T15:03:38.075Z,98562.75
2023-03-16T15:06:07.578Z,98576.88
2023-03-16T15:08:43.625Z,98581.34
2023-03-16T15:11:13.378Z,98578.94
2023-03-16T15:13:55.540Z,98580.97
2023-03-16T15:16:24.169Z,98580.50
2023-03-16T15:18:52.967Z,98584.19
2023-03-16T15:21:24.586Z,98575.53
2023-03-16T15:23:52.741Z,98579.19
2023-03-16T15:26:27.313Z,98575.81
2023-03-16T15:28:56.546Z,98581.44
2023-03-16T15:31:25.042Z,98584.31
2023-03-16T15:33:53.270Z,98574.84
2023-03-16T15:36:24.385Z,98568.06
2023-03-16T15:38:55.564Z,98572.56
2023-03-16T15:41:30.102Z,98579.63
2023-03-16T15:44:01.066Z,98569.25
2023-03-16T15:46:29.509Z,98560.63
2023-03-16T15:48:57.693Z,98556.31
2023-03-16T15:51:29.050Z,98553.09
2023-03-16T15:54:00.245Z,98551.63
2023-03-16T15:56:36.643Z,98542.22
2023-03-16T15:59:16.987Z,98532.63
2023-03-16T16:01:47.631Z,98534.41
2023-03-16T16:04:19.875Z,98516.97
2023-03-16T16:06:48.682Z,98519.00
2023-03-16T16:09:17.271Z,98524.25
2023-03-16T16:11:49.049Z,98525.13
2023-03-16T16:14:20.347Z,98528.69
2023-03-16T16:16:48.551Z,98521.75
2023-03-16T16:19:18.854Z,98518.34
2023-03-16T16:21:48.029Z,98518.34
2023-03-16T16:24:18.244Z,98520.56
2023-03-16T16:26:54.161Z,98520.00
2023-03-16T16:29:25.221Z,98514.94
2023-03-16T16:31:53.577Z,98515.88
2023-03-16T16:34:24.875Z,98516.03
2023-03-16T16:36:54.118Z,98518.75
2023-03-16T16:39:23.086Z,98514.34
2023-03-16T16:41:55.032Z,98522.97
2023-03-16T16:44:25.696Z,98521.47
2023-03-16T16:46:54.758Z,98527.56
2023-03-16T16:49:24.928Z,98522.31
2023-03-16T16:51:53.424Z,98525.22
2023-03-16T16:54:23.348Z,98522.00
2023-03-16T16:56:56.362Z,98521.44
2023-03-16T16:59:27.371Z,98516.44
2023-03-16T17:01:56.676Z,98515.00
2023-03-16T17:04:27.353Z,98530.03
2023-03-16T17:06:58.894Z,98524.28
2023-03-16T17:09:30.413Z,98521.75
2023-03-16T17:12:02.291Z,98527.06
2023-03-16T17:14:31.583Z,98535.03
2023-03-16T17:17:03.357Z,98539.53
2023-03-16T17:19:32.930Z,98534.44
2023-03-16T17:22:02.662Z,98534.44
2023-03-16T17:24:31.346Z,98536.31
2023-03-16T17:27:03.183Z,98534.63
2023-03-16T17:29:33.128Z,98540.03
2023-03-16T17:32:02.487Z,98529.53
2023-03-16T17:34:33.431Z,98527.84
2023-03-16T17:37:01.827Z,98526.16
2023-03-16T17:39:32.201Z,98520.91
2023-03-16T17:42:04.230Z,98527.19
2023-03-16T17:44:35.188Z,98530.06
2023-03-16T17:47:03.555Z,98531.94
2023-03-16T17:49:32.043Z,98525.13
2023-03-16T17:52:00.695Z,98529.53
2023-03-16T17:54:29.024Z,98521.75
2023-03-16T17:56:57.175Z,98520.06
2023-03-16T17:59:27.465Z,98524.63
2023-03-16T18:01:55.748Z,98521.25
2023-03-16T18:04:25.759Z,98519.56
2023-03-16T18:06:54.370Z,98528.44
2023-03-16T18:09:22.641Z,98522.44
2023-03-16T18:11:52.255Z,98528.63
2023-03-16T18:14:35.105Z,98516.50
2023-03-16T18:17:05.404Z,98522.78
2023-03-16T18:19:33.627Z,98521.00
2023-03-16T18:22:01.781Z,98529.72
2023-03-16T18:24:29.875Z,98512.28
2023-03-16T18:26:58.067Z,98517.53
2023-03-16T18:29:27.480Z,98517.53
2023-03-16T18:31:58.322Z,98515.84
2023-03-16T18:34:33.622Z,98527.19
2023-03-16T18:37:06.192Z,98510.59
2023-03-16T18:39:34.878Z,98508.91
2023-03-16T18:42:03.782Z,98519.41
2023-03-16T18:44:33.790Z,98512.28
2023-03-16T18:47:04.636Z,98514.91
2023-03-16T18:49:34.736Z,98517.53
2023-03-16T18:52:03.101Z,98517.53
2023-03-16T18:54:35.184Z,98524.47
2023-03-16T18:57:05.667Z,98520.06
2023-03-16T18:59:35.181Z,98515.66
2023-03-16T19:02:03.453Z,98511.44
2023-03-16T19:04:32.913Z,98501.88
2023-03-16T19:07:01.591Z,98499.34
2023-03-16T19:09:32.029Z,98491.47
2023-03-16T19:12:00.776Z,98493.31
2023-03-16T19:14:33.013Z,98498.56
2023-03-16T19:17:02.567Z,98504.66
2023-03-16T19:19:30.775Z,98510.69
2023-03-16T19:22:05.084Z,98516.78
2023-03-16T19:24:36.757Z,98512.47
2023-03-16T19:27:08.703Z,98518.47
2023-03-16T19:29:37.076Z,98501.03
2023-03-16T19:32:06.760Z,98502.63
2023-03-16T19:34:34.904Z,98510.41
2023-03-16T19:37:03.086Z,98506.88
2023-03-16T19:39:31.273Z,98506.69
2023-03-16T19:42:00.111Z,98497.88
2023-03-16T19:44:29.490Z,98502.19
2023-03-16T19:46:59.187Z,98495.25
2023-03-16T19:49:29.388Z,98497.88
2023-03-16T19:51:58.043Z,98489.09
2023-03-16T19:54:27.801Z,98494.31
2023-03-16T19:56:57.558Z,98486.47
2023-03-16T19:59:31.127Z,98498.63
2023-03-16T20:01:59.478Z,98499.41
2023-03-16T20:04:29.245Z,98506.34
2023-03-16T20:06:57.487Z,98501.94
2023-03-16T20:09:26.259Z,98501.94
2023-03-16T20:11:54.388Z,98501.13
2023-03-16T20:14:29.520Z,98510.66
2023-03-16T20:16:57.847Z,98513.28
2023-03-16T20:19:25.970Z,98512.34
2023-03-16T20:21:55.337Z,98505.31
2023-03-16T20:24:24.562Z,98505.41
2023-03-16T20:26:54.435Z,98503.56
2023-03-16T20:29:28.880Z,98501.03
2023-03-16T20:31:57.348Z,98504.47
2023-03-16T20:34:27.475Z,98501.88
2023-03-16T20:36:57.850Z,98504.47
2023-03-16T20:39:26.034Z,98501.13
2023-03-16T20:41:54.370Z,98494.94
2023-03-16T20:44:23.691Z,98506.34
2023-03-16T20:46:52.331Z,98502.78
2023-03-16T20:49:39.366Z,98502.03
2023-03-16T20:52:16.396Z,98497.56
2023-03-16T20:54:44.605Z,98504.47
2023-03-16T20:57:16.734Z,98504.56
2023-03-16T20:59:46.901Z,98499.41
2023-03-16T21:02:27.178Z,98500.25
2023-03-16T21:04:56.074Z,98502.03
2023-03-16T21:07:25.612Z,98492.50
2023-03-16T21:09:54.023Z,98499.41
2023-03-16T21:12:26.236Z,98502.97
2023-03-16T21:14:54.728Z,98498.56
2023-03-16T21:17:26.859Z,98493.25
2023-03-16T21:19:55.271Z,98504.47
2023-03-16T21:22:28.014Z,98499.25
2023-03-16T21:24:57.377Z,98511.59
2023-03-16T21:27:28.765Z,98506.34
2023-03-16T21:30:00.603Z,98505.41
2023-03-16T21:32:30.996Z,98512.34
2023-03-16T21:34:59.252Z,98509.72
2023-03-16T21:37:30.373Z,98506.16
2023-03-16T21:40:00.166Z,98503.56
2023-03-16T21:42:29.599Z,98508.78
2023-03-16T21:44:57.754Z,98513.97
2023-03-16T21:47:28.243Z,98521.75
2023-03-16T21:49:57.457Z,98516.50
2023-03-16T21:52:28.170Z,98513.88
2023-03-16T21:54:59.196Z,98510.44
2023-03-16T21:57:27.324Z,98517.44
2023-03-16T21:59:55.430Z,98517.44
2023-03-16T22:02:26.084Z,98515.75
2023-03-16T22:04:56.173Z,98515.66
2023-03-16T22:07:24.257Z,98520.91
2023-03-16T22:09:52.441Z,98521.75
2023-03-16T22:12:21.882Z,98517.34
2023-03-16T22:14:50.067Z,98528.69
2023-03-16T22:17:22.932Z,98531.50
2023-03-16T22:19:51.184Z,98534.88
2023-03-16T22:22:19.374Z,98522.59
2023-03-16T22:24:47.614Z,98528.69
2023-03-16T22:27:19.302Z,98523.44
2023-03-16T22:29:49.930Z,98527.00
2023-03-16T22:32:21.917Z,98527.94
2023-03-16T22:34:52.393Z,98530.72
2023-03-16T22:37:23.198Z,98534.28
2023-03-16T22:39:51.666Z,98538.69
2023-03-16T22:42:29.114Z,98530.91
2023-03-16T22:44:58.912Z,98535.38
2023-03-16T22:47:32.338Z,98539.97
2023-03-16T22:50:00.850Z,98534.81
2023-03-16T22:52:32.333Z,98537.84
2023-03-16T22:55:02.870Z,98534.13
2023-03-16T22:57:32.429Z,98531.13
2023-03-16T23:00:11.273Z,98522.28
2023-03-16T23:02:39.767Z,98533.38
2023-03-16T23:05:22.501Z,98522.78
2023-03-16T23:07:50.731Z,98529.72
2023-03-16T23:10:20.461Z,98527.00
2023-03-16T23:12:49.352Z,98527.00
2023-03-16T23:15:21.321Z,98530.41
2023-03-16T23:17:49.620Z,98524.22
2023-03-16T23:20:22.596Z,98519.81
2023-03-16T23:22:51.151Z,98522.44
2023-03-16T23:25:19.279Z,98515.50
2023-03-16T23:27:47.699Z,98513.97
2023-03-16T23:30:22.020Z,98522.94
2023-03-16T23:32:52.012Z,98512.44
2023-03-16T23:35:24.300Z,98515.84
2023-03-16T23:37:53.530Z,98519.03
2023-03-16T23:40:22.809Z,98518.88
2023-03-16T23:42:51.509Z,98523.19
2023-03-16T23:45:31.879Z,98520.56
2023-03-16T23:48:03.590Z,98523.94
2023-03-16T23:50:34.479Z,98537.84
2023-03-16T23:53:03.081Z,98537.66
2023-03-16T23:55:31.236Z,98533.25
2023-03-16T23:57:59.301Z,98538.34
